This is the latest recevied weather packets stored in our database for station/object K6POO-1. If no packets are shown the sender has not sent any weather packets the latest 10 day(s).
| Time | Temp. | Humidity | Pressure | Rain* | Wind** | Luminosity | Snow |
|---|---|---|---|---|---|---|---|
| 1778186025 | 17.22° C | 70% | 1018.9 hPa | 0 mm | - | 965 W/m² | - |
| 1778185720 | 17.22° C | 70% | 1018.8 hPa | 0 mm | - | 968 W/m² | - |
| 1778185417 | 16.67° C | 72% | 1019 hPa | 0 mm | - | 975 W/m² | - |
| 1778185113 | 16.67° C | 72% | 1019 hPa | 0 mm | - | 977 W/m² | - |
| 1778184808 | 17.22° C | 69% | 1018.9 hPa | 0 mm | - | 982 W/m² | - |
| 1778184505 | 17.22° C | 72% | 1019.1 hPa | 0 mm | - | 989 W/m² | - |
| 1778184201 | 16.67° C | 73% | 1019 hPa | 0 mm | - | 990 W/m² | - |
| 1778183897 | 16.11° C | 74% | 1019.3 hPa | 0 mm | - | 998 W/m² | - |
| 1778183595 | 16.11° C | 75% | 1019.2 hPa | 0 mm | - | 1001 W/m² | - |
| 1778183292 | 16.11° C | 73% | 1019.2 hPa | 0 mm | - | 999 W/m² | - |
| 1778182988 | 16.11° C | 74% | 1019.3 hPa | 0 mm | - | 998 W/m² | - |
| 1778182684 | 16.11° C | 75% | 1019.4 hPa | 0 mm | - | 1020 W/m² | - |
| 1778182382 | 15.56° C | 75% | 1019.5 hPa | 0 mm | - | 1030 W/m² | - |
| 1778182077 | 16.11° C | 75% | 1019.6 hPa | 0 mm | - | 829 W/m² | - |
| 1778181774 | 16.11° C | 73% | 1019.4 hPa | 0 mm | - | 871 W/m² | - |
| 1778181470 | 16.11° C | 75% | 1019.6 hPa | 0 mm | - | 671 W/m² | - |
| 1778181167 | 16.11° C | 76% | 1019.4 hPa | 0 mm | - | 841 W/m² | - |
| 1778180864 | 15° C | 78% | 1019.6 hPa | 0 mm | - | 739 W/m² | - |
| 1778180563 | 15.56° C | 78% | 1019.6 hPa | 0 mm | - | 778 W/m² | - |
| 1778180261 | 15.56° C | 77% | 1019.7 hPa | 0 mm | - | 620 W/m² | - |
| 1778179957 | 16.11° C | 75% | 1019.6 hPa | 0 mm | - | 583 W/m² | - |
| 1778179655 | 15.56° C | 77% | 1019.7 hPa | 0 mm | - | 1033 W/m² | - |
| 1778179353 | 15.56° C | 76% | 1019.7 hPa | 0 mm | - | 837 W/m² | - |
| 1778179049 | 16.11° C | 75% | 1019.7 hPa | 0 mm | - | 681 W/m² | - |
| 1778178746 | 15.56° C | 75% | 1019.9 hPa | 0 mm | - | 929 W/m² | - |
* Rain latest hour (hover to see other rain measurements)
** Current wind speed in m/s (hover to see current wind gust speed)